Time;durP1;ratioP1;P1;durP2;ratioP2;P2;SDS_P1;SDS_P2;PMS_P1;PMS_P2;Temp;Humidity;BMP_temperature;BMP_pressure;BME280_temperature;BME280_humidity;BME280_pressure;Samples;Min_cycle;Max_cycle;Signal;HPM_P1;HPM_P2
2022/10/17 00:00:51;;;;;;;1.88;1.60;;;24.00;62.50;;;;;;5090993;28;20092;-48
2022/10/17 00:03:17;;;;;;;2.00;1.80;;;24.00;62.40;;;;;;5094993;28;20793;-50
2022/10/17 00:05:45;;;;;;;2.80;1.60;;;24.00;62.50;;;;;;5094099;28;20032;-50
2022/10/17 00:08:11;;;;;;;2.45;1.65;;;24.00;62.60;;;;;;5121812;27;20063;-48
2022/10/17 00:10:37;;;;;;;3.83;1.63;;;24.00;63.00;;;;;;5111056;28;20038;-40
2022/10/17 00:13:04;;;;;;;3.03;1.70;;;24.10;63.30;;;;;;5087598;28;20055;-41
2022/10/17 00:15:30;;;;;;;3.25;1.80;;;24.00;63.40;;;;;;5093423;28;20313;-42
2022/10/17 00:17:56;;;;;;;1.92;1.55;;;24.00;63.70;;;;;;5124598;28;20023;-45
2022/10/17 00:20:22;;;;;;;3.53;1.85;;;24.10;63.80;;;;;;5105244;28;20028;-41
2022/10/17 00:22:49;;;;;;;3.85;1.40;;;24.10;63.60;;;;;;5107488;28;20028;-41
2022/10/17 00:25:15;;;;;;;2.38;1.60;;;24.10;63.60;;;;;;5111535;28;20247;-44
2022/10/17 00:27:41;;;;;;;2.03;1.60;;;24.00;63.40;;;;;;5084186;28;20032;-44
2022/10/17 00:30:10;;;;;;;2.00;1.47;;;24.10;63.20;;;;;;5105024;28;20079;-41
2022/10/17 00:32:36;;;;;;;2.97;1.80;;;24.00;63.10;;;;;;5091680;28;20032;-43
2022/10/17 00:35:03;;;;;;;2.75;1.77;;;24.10;63.10;;;;;;5095371;28;20054;-41
2022/10/17 00:37:32;;;;;;;3.55;1.70;;;24.10;63.00;;;;;;5110580;28;20087;-44
2022/10/17 00:39:58;;;;;;;3.30;1.52;;;24.10;63.00;;;;;;5107427;28;20091;-42
2022/10/17 00:42:25;;;;;;;2.95;1.83;;;24.10;62.90;;;;;;5092085;28;20017;-43
2022/10/17 00:45:22;;;;;;;1.73;1.50;;;24.00;62.70;;;;;;5097208;28;20063;-43
2022/10/17 00:48:09;;;;;;;2.00;1.60;;;24.00;62.80;;;;;;5041753;28;20092;-43
2022/10/17 00:50:35;;;;;;;1.83;1.63;;;24.00;62.70;;;;;;5039678;28;20056;-42
2022/10/17 00:53:02;;;;;;;2.15;1.55;;;24.00;62.70;;;;;;5024379;28;20041;-42
2022/10/17 00:55:41;;;;;;;1.83;1.53;;;24.00;62.70;;;;;;5053738;28;20473;-45
2022/10/17 00:58:07;;;;;;;1.63;1.52;;;24.00;62.90;;;;;;5015459;28;20109;-43
2022/10/17 01:00:33;;;;;;;1.67;1.50;;;24.00;63.00;;;;;;5026693;28;20506;-42
2022/10/17 01:03:00;;;;;;;2.20;1.80;;;24.00;63.00;;;;;;5042911;28;20100;-41
2022/10/17 01:05:26;;;;;;;2.85;1.58;;;24.00;63.00;;;;;;5035799;28;20061;-41
2022/10/17 01:07:52;;;;;;;1.50;1.40;;;24.00;63.00;;;;;;5038845;28;20048;-41
2022/10/17 01:10:18;;;;;;;2.90;1.50;;;24.00;62.90;;;;;;5038950;28;20029;-43
2022/10/17 01:13:10;;;;;;;1.80;1.33;;;24.00;62.90;;;;;;5037100;28;20056;-49
2022/10/17 01:15:51;;;;;;;2.17;1.83;;;24.00;63.10;;;;;;5039777;28;20046;-50
2022/10/17 01:18:30;;;;;;;7.82;1.90;;;24.00;63.10;;;;;;5039458;28;20084;-42
2022/10/17 01:21:08;;;;;;;1.63;1.52;;;24.00;63.10;;;;;;5022584;28;20056;-45
2022/10/17 01:23:59;;;;;;;1.77;1.50;;;24.00;63.10;;;;;;5038684;28;20135;-46
2022/10/17 01:26:53;;;;;;;1.70;1.40;;;24.00;63.00;;;;;;5107218;28;20042;-43
2022/10/17 01:29:46;;;;;;;2.47;1.55;;;24.00;63.10;;;;;;5084543;28;20028;-49
2022/10/17 01:32:38;;;;;;;2.17;1.73;;;24.00;63.00;;;;;;5104985;28;20036;-45
2022/10/17 01:35:14;;;;;;;2.00;1.70;;;24.00;63.00;;;;;;5091072;28;20475;-44
2022/10/17 01:37:47;;;;;;;1.95;1.65;;;23.90;62.90;;;;;;5093313;28;20035;-46
2022/10/17 01:40:24;;;;;;;3.30;1.80;;;23.90;62.90;;;;;;5121498;27;20044;-44
2022/10/17 01:43:03;;;;;;;2.58;1.67;;;23.90;62.90;;;;;;5129961;27;20055;-43
2022/10/17 01:45:44;;;;;;;1.58;1.48;;;23.90;62.80;;;;;;5103038;28;20040;-43
2022/10/17 01:48:14;;;;;;;1.67;1.48;;;23.90;62.80;;;;;;5111115;28;20020;-43
2022/10/17 01:50:50;;;;;;;1.60;1.50;;;23.90;62.80;;;;;;5128827;28;20039;-43
2022/10/17 01:53:22;;;;;;;1.67;1.58;;;23.90;62.70;;;;;;5088466;28;20016;-45
2022/10/17 01:55:48;;;;;;;2.92;1.58;;;23.80;62.70;;;;;;5113468;28;20045;-48
2022/10/17 01:58:27;;;;;;;1.70;1.55;;;23.80;62.80;;;;;;5124394;27;20035;-44
2022/10/17 02:00:53;;;;;;;1.77;1.40;;;23.80;62.70;;;;;;5114401;28;20058;-44
2022/10/17 02:03:19;;;;;;;1.50;1.40;;;23.80;62.70;;;;;;5100159;28;20130;-59
2022/10/17 02:05:46;;;;;;;1.77;1.50;;;23.80;62.80;;;;;;5120067;28;20034;-41
2022/10/17 02:08:12;;;;;;;1.63;1.53;;;23.80;62.80;;;;;;5101504;28;20276;-41
2022/10/17 02:10:58;;;;;;;1.88;1.50;;;23.80;62.70;;;;;;5098812;28;20362;-42
2022/10/17 02:14:00;;;;;;;1.55;1.45;;;23.70;62.60;;;;;;5079647;28;20029;-43
2022/10/17 02:16:45;;;;;;;1.60;1.50;;;23.70;62.70;;;;;;5081809;28;20127;-44
2022/10/17 02:19:54;;;;;;;2.03;1.40;;;23.70;62.70;;;;;;5097934;28;20043;-45
2022/10/17 02:22:37;;;;;;;2.00;1.50;;;23.70;63.10;;;;;;5065856;28;20021;-42
2022/10/17 02:25:35;;;;;;;2.38;1.50;;;23.70;63.10;;;;;;5077780;28;20044;-42
2022/10/17 02:28:20;;;;;;;1.43;1.33;;;23.70;63.20;;;;;;5084157;28;20040;-42
2022/10/17 02:30:52;;;;;;;1.33;1.20;;;23.70;63.10;;;;;;5081578;28;20025;-42
2022/10/17 02:33:27;;;;;;;2.15;1.48;;;23.70;63.10;;;;;;5089078;28;20024;-47
2022/10/17 02:35:55;;;;;;;1.58;1.48;;;23.60;63.10;;;;;;5088751;28;20120;-43
2022/10/17 02:38:21;;;;;;;1.60;1.30;;;23.60;63.00;;;;;;5107125;27;20060;-44
2022/10/17 02:40:49;;;;;;;1.70;1.50;;;23.60;63.00;;;;;;5103835;27;20025;-44
2022/10/17 02:43:15;;;;;;;1.40;1.30;;;23.60;62.90;;;;;;5072423;28;20047;-44
2022/10/17 02:45:41;;;;;;;1.50;1.40;;;23.60;63.00;;;;;;5092960;28;20058;-43
2022/10/17 02:48:38;;;;;;;1.52;1.40;;;23.60;63.00;;;;;;5072912;28;20016;-45
2022/10/17 02:51:11;;;;;;;1.50;1.25;;;23.60;63.00;;;;;;5107251;28;20029;-44
2022/10/17 02:53:50;;;;;;;1.63;1.52;;;23.50;62.90;;;;;;5070992;28;20025;-41
2022/10/17 02:56:20;;;;;;;1.65;1.27;;;23.50;63.00;;;;;;5079849;28;20129;-44
2022/10/17 02:58:50;;;;;;;1.98;1.30;;;23.50;62.90;;;;;;5075026;28;20028;-45
2022/10/17 03:01:16;;;;;;;3.58;1.63;;;23.50;62.90;;;;;;5078755;28;20085;-43
2022/10/17 03:03:42;;;;;;;1.50;1.40;;;23.50;63.00;;;;;;5068397;28;20028;-44
2022/10/17 03:06:09;;;;;;;2.25;1.73;;;23.50;63.00;;;;;;5081391;28;20071;-44
2022/10/17 03:08:35;;;;;;;1.70;1.60;;;23.50;63.00;;;;;;5122992;27;20029;-44
2022/10/17 03:11:01;;;;;;;1.52;1.27;;;23.40;63.00;;;;;;5100672;28;20032;-47
2022/10/17 03:13:28;;;;;;;1.60;1.27;;;23.40;63.10;;;;;;5097706;28;20401;-43
2022/10/17 03:15:56;;;;;;;1.55;1.45;;;23.40;63.00;;;;;;5111777;28;20032;-43
2022/10/17 03:18:21;;;;;;;;;;;23.40;63.00;;;;;;5100944;28;20024;-42
2022/10/17 03:20:48;;;;;;;1.75;1.27;;;23.40;63.00;;;;;;5107943;28;20464;-44
2022/10/17 03:23:14;;;;;;;1.95;1.38;;;23.40;63.70;;;;;;5098001;28;20039;-45
2022/10/17 03:25:40;;;;;;;1.60;1.50;;;23.40;63.10;;;;;;5106506;28;20473;-44
2022/10/17 03:28:06;;;;;;;2.40;1.50;;;23.30;63.00;;;;;;5089880;28;20036;-45
2022/10/17 03:30:33;;;;;;;1.40;1.30;;;23.40;63.20;;;;;;5096579;28;20041;-46
2022/10/17 03:32:59;;;;;;;1.92;1.50;;;23.30;63.10;;;;;;5104949;28;20032;-47
2022/10/17 03:35:25;;;;;;;1.52;1.40;;;23.30;63.20;;;;;;5091743;28;20028;-48
2022/10/17 03:37:52;;;;;;;1.50;1.40;;;23.30;63.40;;;;;;5118682;27;20038;-48
2022/10/17 03:40:18;;;;;;;2.17;1.63;;;23.30;63.60;;;;;;5091952;28;20048;-43
2022/10/17 03:42:44;;;;;;;1.87;1.50;;;23.30;63.70;;;;;;5090919;28;20133;-44
2022/10/17 03:45:10;;;;;;;2.20;1.63;;;23.30;63.80;;;;;;5098119;28;20040;-44
2022/10/17 03:47:36;;;;;;;1.85;1.67;;;23.30;63.80;;;;;;5092726;28;20752;-44
2022/10/17 03:50:03;;;;;;;1.58;1.27;;;23.20;63.80;;;;;;5086538;28;20036;-47
2022/10/17 03:52:29;;;;;;;1.58;1.48;;;23.20;63.90;;;;;;5088817;28;20106;-45
2022/10/17 03:54:55;;;;;;;1.58;1.38;;;23.20;63.90;;;;;;5094903;28;20106;-44
2022/10/17 03:57:21;;;;;;;1.70;1.60;;;23.20;64.00;;;;;;5085548;28;20059;-45
2022/10/17 03:59:50;;;;;;;1.60;1.50;;;23.20;64.10;;;;;;5087449;28;20047;-44
2022/10/17 04:02:16;;;;;;;1.52;1.25;;;23.20;64.10;;;;;;5090738;28;20043;-43
2022/10/17 04:04:42;;;;;;;1.50;1.40;;;23.20;64.20;;;;;;5097222;28;20028;-45
2022/10/17 04:07:09;;;;;;;2.35;1.70;;;23.20;64.30;;;;;;5091896;28;20053;-45
2022/10/17 04:09:35;;;;;;;1.92;1.63;;;23.10;64.30;;;;;;5104148;28;20032;-44
2022/10/17 04:12:01;;;;;;;2.00;1.60;;;23.10;64.30;;;;;;5102304;28;20711;-43
2022/10/17 04:14:27;;;;;;;2.10;1.80;;;23.10;64.30;;;;;;5097651;28;20047;-43
2022/10/17 04:16:54;;;;;;;1.50;1.40;;;23.10;64.30;;;;;;5102358;28;20023;-44
2022/10/17 04:19:20;;;;;;;1.75;1.50;;;23.10;64.30;;;;;;5085260;28;20053;-43
2022/10/17 04:21:47;;;;;;;1.95;1.70;;;23.10;64.30;;;;;;5088374;28;20088;-44
2022/10/17 04:24:13;;;;;;;3.17;1.53;;;23.10;64.30;;;;;;5083964;28;20048;-46
2022/10/17 04:26:39;;;;;;;1.55;1.40;;;23.00;64.50;;;;;;5090535;28;20032;-47
2022/10/17 04:29:05;;;;;;;1.65;1.50;;;23.00;64.60;;;;;;5104042;28;20027;-44
2022/10/17 04:31:31;;;;;;;2.35;2.15;;;23.00;64.70;;;;;;5104181;28;20024;-44
2022/10/17 04:33:57;;;;;;;2.08;1.55;;;23.00;64.70;;;;;;5096970;28;20035;-44
2022/10/17 04:36:23;;;;;;;2.15;1.80;;;23.00;64.60;;;;;;5099519;28;20032;-44
2022/10/17 04:38:50;;;;;;;2.25;1.83;;;23.00;64.60;;;;;;5096437;28;20092;-44
2022/10/17 04:41:17;;;;;;;3.03;1.98;;;23.00;64.60;;;;;;5096303;28;20020;-44
2022/10/17 04:43:43;;;;;;;1.77;1.67;;;22.90;64.50;;;;;;5096677;28;20140;-44
2022/10/17 04:46:11;;;;;;;1.77;1.67;;;22.90;64.40;;;;;;5098711;28;20087;-44
2022/10/17 04:48:37;;;;;;;1.70;1.60;;;22.90;64.50;;;;;;5092583;28;20296;-45
2022/10/17 04:51:11;;;;;;;2.13;1.70;;;22.90;64.50;;;;;;5093589;28;20043;-45
2022/10/17 04:53:38;;;;;;;1.63;1.52;;;22.90;64.50;;;;;;5096980;28;20038;-45
2022/10/17 04:56:13;;;;;;;1.90;1.73;;;22.90;64.50;;;;;;5094438;28;20032;-50
2022/10/17 04:58:39;;;;;;;1.63;1.50;;;22.90;64.40;;;;;;5098720;28;20031;-49
2022/10/17 05:01:10;;;;;;;2.08;1.60;;;22.90;64.40;;;;;;5100017;28;20618;-45
2022/10/17 05:03:36;;;;;;;2.20;1.63;;;22.80;64.30;;;;;;5111549;28;20055;-46
2022/10/17 05:06:16;;;;;;;1.92;1.48;;;22.80;64.30;;;;;;5119791;28;20031;-47
2022/10/17 05:08:42;;;;;;;1.80;1.70;;;22.80;64.30;;;;;;5114927;28;20034;-44
2022/10/17 05:11:23;;;;;;;1.67;1.58;;;22.80;64.30;;;;;;5119961;27;20051;-43
2022/10/17 05:13:52;;;;;;;1.83;1.70;;;22.80;64.30;;;;;;5112825;28;20027;-43
2022/10/17 05:16:18;;;;;;;1.85;1.65;;;22.80;64.30;;;;;;5116940;28;20102;-45
2022/10/17 05:18:46;;;;;;;2.20;1.80;;;22.80;64.40;;;;;;5116297;28;20027;-46
2022/10/17 05:21:12;;;;;;;1.90;1.70;;;22.80;64.60;;;;;;5118580;28;20113;-44
2022/10/17 05:23:38;;;;;;;2.20;2.00;;;22.70;64.70;;;;;;5117778;28;20043;-46
2022/10/17 05:26:05;;;;;;;2.10;1.90;;;22.70;64.70;;;;;;5122888;28;20836;-47
2022/10/17 05:28:31;;;;;;;1.77;1.63;;;22.70;64.70;;;;;;5115625;28;20115;-44
2022/10/17 05:30:57;;;;;;;2.22;1.65;;;22.70;64.70;;;;;;5119540;28;20028;-44
2022/10/17 05:33:23;;;;;;;2.47;1.77;;;22.70;64.70;;;;;;5104327;28;20065;-45
2022/10/17 05:35:49;;;;;;;1.90;1.50;;;22.70;64.70;;;;;;5101112;28;20028;-45
2022/10/17 05:38:15;;;;;;;1.73;1.63;;;22.70;64.70;;;;;;5099043;28;20039;-46
2022/10/17 05:40:41;;;;;;;1.67;1.58;;;22.60;64.60;;;;;;5101823;28;20031;-46
2022/10/17 05:43:08;;;;;;;1.90;1.70;;;22.60;64.70;;;;;;5100014;28;20096;-45
2022/10/17 05:45:35;;;;;;;1.83;1.50;;;22.60;64.60;;;;;;5098163;28;20845;-45
2022/10/17 05:48:01;;;;;;;2.17;1.85;;;22.60;64.60;;;;;;5097794;28;20036;-45
2022/10/17 05:50:27;;;;;;;1.95;1.73;;;22.60;64.60;;;;;;5095759;28;20024;-46
2022/10/17 05:52:54;;;;;;;1.83;1.73;;;22.60;64.60;;;;;;5097499;28;20059;-45
2022/10/17 05:55:20;;;;;;;1.90;1.77;;;22.60;64.60;;;;;;5094879;28;20024;-44
2022/10/17 05:57:46;;;;;;;1.95;1.85;;;22.60;64.50;;;;;;5092524;28;20039;-45
2022/10/17 06:00:13;;;;;;;1.90;1.70;;;22.50;64.40;;;;;;5092395;28;20039;-44
2022/10/17 06:02:39;;;;;;;2.00;1.75;;;22.50;64.50;;;;;;5095784;28;20024;-43
2022/10/17 06:05:05;;;;;;;1.70;1.60;;;22.50;64.50;;;;;;5099482;28;20507;-43
2022/10/17 06:07:31;;;;;;;2.25;1.98;;;22.50;64.50;;;;;;5098386;28;20025;-43
2022/10/17 06:09:57;;;;;;;2.05;1.77;;;22.50;64.60;;;;;;5100797;28;20058;-43
2022/10/17 06:12:24;;;;;;;2.42;1.80;;;22.50;64.50;;;;;;5097279;28;20063;-44
2022/10/17 06:14:50;;;;;;;1.90;1.80;;;22.50;64.50;;;;;;5099231;28;20032;-46
2022/10/17 06:17:16;;;;;;;2.13;1.92;;;22.40;64.40;;;;;;5097503;28;20028;-48
2022/10/17 06:19:43;;;;;;;2.08;1.65;;;22.40;64.40;;;;;;5100616;28;20623;-44
2022/10/17 06:22:09;;;;;;;1.60;1.50;;;22.40;64.40;;;;;;5099517;28;20062;-45
2022/10/17 06:24:35;;;;;;;2.00;1.80;;;22.40;64.40;;;;;;5099091;28;20048;-48
2022/10/17 06:27:01;;;;;;;1.80;1.60;;;22.40;64.40;;;;;;5100772;28;20027;-46
2022/10/17 06:29:27;;;;;;;1.80;1.70;;;22.40;64.40;;;;;;5107563;28;21551;-46
2022/10/17 06:31:54;;;;;;;2.08;1.88;;;22.40;64.30;;;;;;5106016;28;20108;-50
2022/10/17 06:34:20;;;;;;;1.83;1.73;;;22.40;64.40;;;;;;5101816;28;20024;-47
2022/10/17 06:36:46;;;;;;;1.75;1.58;;;22.30;64.30;;;;;;5098643;28;20032;-46
2022/10/17 06:39:12;;;;;;;2.10;1.70;;;22.30;64.30;;;;;;5101545;28;20020;-43
2022/10/17 06:41:40;;;;;;;2.17;1.98;;;22.30;64.30;;;;;;5101237;28;20043;-42
2022/10/17 06:44:09;;;;;;;2.47;1.70;;;22.30;64.40;;;;;;5101610;28;20040;-43
2022/10/17 06:46:36;;;;;;;2.00;1.80;;;22.30;64.40;;;;;;5100951;28;20067;-42
2022/10/17 06:49:03;;;;;;;2.10;1.83;;;22.20;64.40;;;;;;5095634;28;21697;-42
2022/10/17 06:51:30;;;;;;;2.08;1.80;;;22.20;64.40;;;;;;5100535;28;20424;-42
2022/10/17 06:53:57;;;;;;;1.90;1.80;;;22.20;63.80;;;;;;5100013;28;20023;-42
2022/10/17 06:56:23;;;;;;;1.85;1.73;;;22.20;64.50;;;;;;5102634;28;20040;-43
2022/10/17 06:58:50;;;;;;;2.00;1.80;;;22.20;64.50;;;;;;5103728;28;20055;-44
2022/10/17 07:01:16;;;;;;;2.00;1.80;;;22.20;64.60;;;;;;5100821;28;20123;-44
2022/10/17 07:03:45;;;;;;;1.90;1.77;;;22.10;64.80;;;;;;5136989;27;20036;-44
2022/10/17 07:06:11;;;;;;;1.65;1.55;;;22.10;64.90;;;;;;5121649;28;20024;-44
2022/10/17 07:08:37;;;;;;;2.05;1.77;;;22.10;65.60;;;;;;5110077;28;20032;-44
2022/10/17 07:11:14;;;;;;;1.83;1.73;;;22.10;64.90;;;;;;5115249;28;20049;-44
2022/10/17 07:13:40;;;;;;;2.10;1.80;;;22.10;64.90;;;;;;5118569;28;20028;-46
2022/10/17 07:16:07;;;;;;;1.92;1.80;;;22.10;64.90;;;;;;5116747;28;20026;-43
2022/10/17 07:18:33;;;;;;;2.00;1.80;;;22.00;64.80;;;;;;5121665;28;20023;-43
2022/10/17 07:21:00;;;;;;;2.13;1.92;;;22.00;64.80;;;;;;5121776;28;20032;-43
2022/10/17 07:23:26;;;;;;;1.95;1.80;;;22.00;64.80;;;;;;5118723;28;20023;-44
2022/10/17 07:25:52;;;;;;;2.05;1.85;;;22.00;64.70;;;;;;5113980;28;20046;-43
2022/10/17 07:28:18;;;;;;;1.98;1.77;;;22.00;65.50;;;;;;5119491;28;20027;-44
2022/10/17 07:30:44;;;;;;;2.08;1.90;;;22.00;64.70;;;;;;5119652;28;20093;-45
2022/10/17 07:33:10;;;;;;;1.90;1.80;;;22.00;64.70;;;;;;5124982;28;20024;-44
2022/10/17 07:35:39;;;;;;;1.70;1.60;;;22.00;64.80;;;;;;5122667;28;20028;-44
2022/10/17 07:38:06;;;;;;;1.85;1.70;;;22.00;64.80;;;;;;5123692;28;20023;-45
2022/10/17 07:40:32;;;;;;;2.10;1.90;;;21.90;64.80;;;;;;5122379;28;20053;-43
2022/10/17 07:42:59;;;;;;;2.10;1.90;;;21.90;64.80;;;;;;5125078;28;20024;-43
2022/10/17 07:45:26;;;;;;;2.00;1.80;;;21.90;64.90;;;;;;5120653;28;20039;-43
2022/10/17 07:47:56;;;;;;;1.70;1.60;;;21.90;64.80;;;;;;5092048;28;20782;-44
2022/10/17 07:50:22;;;;;;;3.50;1.95;;;21.90;64.90;;;;;;5091165;28;20036;-43
2022/10/17 07:52:48;;;;;;;1.77;1.67;;;21.90;65.20;;;;;;5107900;28;20042;-44
2022/10/17 07:55:15;;;;;;;1.65;1.52;;;21.90;65.30;;;;;;5109891;28;20279;-43
2022/10/17 07:57:41;;;;;;;2.20;2.00;;;21.90;65.30;;;;;;5121859;28;20023;-42
2022/10/17 08:00:08;;;;;;;2.47;1.70;;;21.80;65.30;;;;;;5101652;28;20481;-43
2022/10/17 08:02:34;;;;;;;2.03;1.85;;;21.90;65.50;;;;;;5110618;28;20019;-43
2022/10/17 08:05:00;;;;;;;2.10;1.90;;;21.90;65.30;;;;;;5104340;28;20044;-47
2022/10/17 08:07:26;;;;;;;2.00;1.80;;;21.80;65.10;;;;;;5092541;28;20552;-44
2022/10/17 08:09:52;;;;;;;1.77;1.52;;;21.80;65.00;;;;;;5123684;28;20110;-46
2022/10/17 08:12:18;;;;;;;6.75;2.03;;;21.80;65.00;;;;;;5112486;28;20051;-43
2022/10/17 08:14:44;;;;;;;6.80;2.15;;;21.80;65.00;;;;;;5104788;28;20038;-45
2022/10/17 08:17:10;;;;;;;3.33;2.15;;;21.80;65.40;;;;;;5108216;28;20046;-41
2022/10/17 08:19:39;;;;;;;9.88;2.53;;;21.80;65.40;;;;;;5097503;28;20047;-45
2022/10/17 08:22:05;;;;;;;4.45;2.50;;;21.80;65.60;;;;;;5092555;28;20075;-43
2022/10/17 08:24:32;;;;;;;7.15;2.28;;;21.80;65.70;;;;;;5104269;28;20073;-45
2022/10/17 08:26:59;;;;;;;4.18;2.40;;;21.80;65.80;;;;;;5121161;28;20048;-42
2022/10/17 08:29:25;;;;;;;2.90;2.22;;;21.80;65.90;;;;;;5120955;28;20032;-42
2022/10/17 08:31:52;;;;;;;3.30;2.40;;;21.80;66.00;;;;;;5096168;28;20059;-46
2022/10/17 08:34:18;;;;;;;9.73;2.72;;;21.80;66.20;;;;;;5101642;28;20028;-46
2022/10/17 08:36:44;;;;;;;5.30;2.40;;;21.80;66.50;;;;;;5124525;28;20046;-47
2022/10/17 08:39:10;;;;;;;5.20;2.30;;;21.80;66.20;;;;;;5105979;28;20112;-45
2022/10/17 08:41:48;;;;;;;5.75;2.35;;;21.80;66.00;;;;;;5101950;28;20024;-45
2022/10/17 08:44:40;;;;;;;4.60;2.30;;;21.80;65.80;;;;;;5098019;28;20040;-46
2022/10/17 08:47:10;;;;;;;5.57;2.35;;;21.80;65.70;;;;;;5101171;28;20023;-46
2022/10/17 08:49:58;;;;;;;4.32;2.45;;;21.80;65.50;;;;;;5136566;27;20028;-47
2022/10/17 08:52:39;;;;;;;3.28;2.65;;;21.80;65.30;;;;;;5126800;27;20084;-49
2022/10/17 08:55:27;;;;;;;5.15;2.30;;;21.80;65.20;;;;;;5108942;28;20035;-47
2022/10/17 08:57:53;;;;;;;5.00;2.40;;;21.80;65.00;;;;;;5086217;28;20039;-47
2022/10/17 09:00:20;;;;;;;5.40;2.70;;;21.80;64.90;;;;;;5083752;28;20032;-47
2022/10/17 09:03:28;;;;;;;5.07;2.67;;;21.70;64.80;;;;;;5101549;28;20074;-52
2022/10/17 09:06:28;;;;;;;3.08;2.70;;;21.70;64.60;;;;;;5113085;28;20068;-47
2022/10/17 09:09:20;;;;;;;4.10;2.67;;;21.70;64.60;;;;;;5094290;27;20496;-46
2022/10/17 09:12:09;;;;;;;4.78;2.90;;;21.70;64.50;;;;;;5116498;28;20082;-45
2022/10/17 09:14:55;;;;;;;;;;;21.70;64.50;;;;;;5097864;28;20028;-45
2022/10/17 09:17:31;;;;;;;4.03;2.50;;;21.70;64.30;;;;;;5101234;28;19908;-45
2022/10/17 09:20:18;;;;;;;6.28;2.95;;;21.70;64.30;;;;;;5138592;27;20055;-46
2022/10/17 09:22:52;;;;;;;3.47;2.53;;;21.60;64.20;;;;;;5128795;27;20107;-48
2022/10/17 09:25:18;;;;;;;3.47;2.95;;;21.60;64.20;;;;;;5107562;28;20038;-46
2022/10/17 09:27:50;;;;;;;3.08;2.78;;;21.60;64.10;;;;;;5140236;27;20020;-47
2022/10/17 09:30:33;;;;;;;3.28;2.50;;;21.60;64.00;;;;;;5111457;27;20031;-49
2022/10/17 09:32:59;;;;;;;4.20;2.85;;;21.60;64.00;;;;;;5120978;27;20024;-47
2022/10/17 09:35:26;;;;;;;3.35;2.78;;;21.60;64.00;;;;;;5098822;28;20096;-46
2022/10/17 09:37:52;;;;;;;;;;;21.60;64.00;;;;;;5095761;28;20035;-47
2022/10/17 09:40:25;;;;;;;3.78;2.88;;;21.60;63.90;;;;;;5084904;28;19971;-45
2022/10/17 09:42:51;;;;;;;3.38;2.85;;;21.50;63.80;;;;;;5103297;28;20066;-46
2022/10/17 09:45:29;;;;;;;3.50;2.88;;;21.50;63.80;;;;;;5107463;28;20063;-49
2022/10/17 09:48:15;;;;;;;3.85;2.90;;;21.50;63.70;;;;;;5085200;28;20770;-47
2022/10/17 09:50:41;;;;;;;4.47;2.83;;;21.50;63.70;;;;;;5098333;28;20145;-48
2022/10/17 09:53:26;;;;;;;3.75;3.15;;;21.50;63.70;;;;;;5101977;28;20029;-46
2022/10/17 09:55:57;;;;;;;3.22;2.80;;;21.50;63.70;;;;;;5113251;28;20830;-46
2022/10/17 09:58:23;;;;;;;4.47;3.00;;;21.50;63.70;;;;;;5093132;28;20036;-46
2022/10/17 10:00:49;;;;;;;3.45;2.92;;;21.50;63.70;;;;;;5089709;28;20106;-46
2022/10/17 10:03:20;;;;;;;3.92;3.03;;;21.50;63.60;;;;;;5087485;28;20046;-45
2022/10/17 10:06:04;;;;;;;3.33;3.03;;;21.50;63.70;;;;;;5084397;28;20047;-46
2022/10/17 10:08:50;;;;;;;3.60;3.00;;;21.50;63.60;;;;;;5088599;28;20020;-48
2022/10/17 10:11:16;;;;;;;3.30;3.08;;;21.40;63.70;;;;;;5126685;28;20065;-48
2022/10/17 10:13:43;;;;;;;3.65;3.00;;;21.40;63.60;;;;;;5092873;28;20024;-50
2022/10/17 10:16:21;;;;;;;4.03;2.90;;;21.40;63.60;;;;;;5098357;28;20032;-50
2022/10/17 10:18:48;;;;;;;4.60;3.22;;;21.40;63.50;;;;;;5097667;28;20028;-46
2022/10/17 10:21:19;;;;;;;2.80;2.50;;;21.30;63.50;;;;;;5096193;28;20079;-47
2022/10/17 10:23:58;;;;;;;3.30;3.00;;;21.40;63.60;;;;;;5122113;28;21924;-48
2022/10/17 10:26:26;;;;;;;3.55;3.08;;;21.30;63.40;;;;;;5089503;28;20034;-47
2022/10/17 10:28:57;;;;;;;3.47;3.13;;;21.30;63.40;;;;;;5093223;28;20024;-45
2022/10/17 10:31:42;;;;;;;4.07;3.08;;;21.30;63.50;;;;;;5131937;27;20060;-47
2022/10/17 10:34:28;;;;;;;3.53;3.20;;;21.30;63.50;;;;;;5101070;28;20032;-47
2022/10/17 10:37:03;;;;;;;3.30;3.00;;;21.30;63.50;;;;;;5125003;27;20070;-48
2022/10/17 10:39:35;;;;;;;3.28;2.97;;;21.20;63.40;;;;;;5135413;28;20035;-46
2022/10/17 10:42:02;;;;;;;3.45;3.15;;;21.30;63.40;;;;;;5109882;28;20020;-45
2022/10/17 10:44:29;;;;;;;3.13;2.85;;;21.20;63.30;;;;;;5101970;28;20024;-46
2022/10/17 10:47:14;;;;;;;3.22;2.92;;;21.20;63.30;;;;;;5133431;27;20084;-46
2022/10/17 10:49:41;;;;;;;3.40;3.10;;;21.20;63.40;;;;;;5105307;28;20032;-45
2022/10/17 10:52:07;;;;;;;3.40;3.03;;;21.20;63.40;;;;;;5106804;28;20017;-45
2022/10/17 10:54:38;;;;;;;3.50;3.20;;;21.20;63.40;;;;;;5094032;28;20039;-52
2022/10/17 10:57:06;;;;;;;3.30;3.00;;;21.20;63.50;;;;;;5097937;28;20576;-49
2022/10/17 10:59:44;;;;;;;3.40;3.10;;;21.10;63.40;;;;;;5096045;28;20030;-47
2022/10/17 11:02:23;;;;;;;11.80;4.57;;;21.10;63.40;;;;;;5097521;28;20024;-50
2022/10/17 11:05:11;;;;;;;3.78;3.45;;;21.10;70.40;;;;;;5096629;28;20126;-53
2022/10/17 11:07:45;;;;;;;8.98;3.75;;;21.10;65.50;;;;;;5096302;28;20042;-55
2022/10/17 11:10:30;;;;;;;9.75;3.72;;;21.10;64.40;;;;;;5095970;28;20042;-55
2022/10/17 11:13:10;;;;;;;10.60;3.42;;;21.10;64.40;;;;;;5094965;28;20047;-53
2022/10/17 11:15:49;;;;;;;6.53;3.63;;;21.10;64.60;;;;;;5093269;28;20660;-52
2022/10/17 11:18:27;;;;;;;9.15;3.63;;;21.10;64.80;;;;;;5095699;28;20043;-67
2022/10/17 11:21:09;;;;;;;5.53;3.78;;;21.10;65.00;;;;;;5093551;28;20032;-52
2022/10/17 11:23:59;;;;;;;5.45;3.50;;;21.10;65.00;;;;;;5099184;28;20084;-53
2022/10/17 11:26:31;;;;;;;5.28;3.92;;;21.10;64.90;;;;;;5130674;27;20826;-52
2022/10/17 11:28:59;;;;;;;6.32;3.60;;;21.10;65.00;;;;;;5104019;28;20042;-48
2022/10/17 11:31:29;;;;;;;6.05;3.58;;;21.10;64.90;;;;;;5092848;28;20021;-53
2022/10/17 11:33:59;;;;;;;6.43;3.55;;;21.10;64.80;;;;;;5120042;27;20108;-49
2022/10/17 11:36:35;;;;;;;7.05;3.67;;;21.10;64.80;;;;;;5138501;27;20052;-54
2022/10/17 11:39:03;;;;;;;5.88;3.70;;;21.10;64.80;;;;;;5100942;28;20024;-50
2022/10/17 11:41:38;;;;;;;4.60;3.55;;;21.00;64.70;;;;;;5106911;28;20032;-50
2022/10/17 11:44:21;;;;;;;4.32;3.58;;;21.10;64.80;;;;;;5127867;27;20029;-52
2022/10/17 11:46:59;;;;;;;7.07;3.67;;;21.10;64.70;;;;;;5112704;28;20487;-54
2022/10/17 11:49:36;;;;;;;3.97;3.67;;;21.10;65.40;;;;;;5127596;27;20051;-51
2022/10/17 11:52:15;;;;;;;5.53;2.97;;;21.00;64.60;;;;;;5125154;27;20096;-50
2022/10/17 11:54:48;;;;;;;3.58;3.28;;;21.00;64.60;;;;;;5094228;28;20032;-47
2022/10/17 11:57:38;;;;;;;6.50;3.78;;;21.00;64.60;;;;;;5125120;27;20034;-49
2022/10/17 12:00:26;;;;;;;6.10;4.20;;;21.00;64.60;;;;;;5123683;27;20029;-52
2022/10/17 12:03:01;;;;;;;3.88;3.50;;;21.00;64.60;;;;;;5092331;28;20035;-47
2022/10/17 12:05:59;;;;;;;4.72;3.75;;;21.00;64.60;;;;;;5091944;28;20036;-51
2022/10/17 12:08:49;;;;;;;4.13;3.70;;;21.00;64.70;;;;;;5093941;28;20050;-52
2022/10/17 12:11:18;;;;;;;4.88;3.55;;;21.00;64.60;;;;;;5104504;28;20048;-51
2022/10/17 12:13:53;;;;;;;6.45;3.90;;;21.00;64.60;;;;;;5097389;28;20497;-52
2022/10/17 12:16:19;;;;;;;3.80;3.50;;;21.00;64.70;;;;;;5094300;28;20040;-51
2022/10/17 12:19:19;;;;;;;4.93;3.50;;;21.00;64.60;;;;;;5096295;28;20024;-54
2022/10/17 12:21:59;;;;;;;4.65;3.97;;;21.00;64.70;;;;;;5092851;28;20139;-50
2022/10/17 12:24:40;;;;;;;4.82;3.70;;;20.90;64.60;;;;;;5121897;28;20507;-53
2022/10/17 12:27:41;;;;;;;3.85;3.55;;;20.90;64.60;;;;;;5112591;28;20028;-51
2022/10/17 12:30:25;;;;;;;4.65;3.80;;;20.90;64.60;;;;;;5089417;28;20040;-50
2022/10/17 12:32:58;;;;;;;4.22;3.88;;;20.90;64.60;;;;;;5096577;28;20050;-50
2022/10/17 12:35:25;;;;;;;4.03;3.63;;;20.90;64.60;;;;;;5094875;28;20028;-50
2022/10/17 12:37:52;;;;;;;4.47;4.07;;;20.90;64.70;;;;;;5095497;28;20087;-49
2022/10/17 12:40:36;;;;;;;4.85;4.18;;;20.90;64.70;;;;;;5095005;28;21395;-51
2022/10/17 12:43:15;;;;;;;4.35;3.80;;;20.90;64.60;;;;;;5094628;28;20031;-52
2022/10/17 12:46:10;;;;;;;4.55;3.60;;;20.90;64.60;;;;;;5094895;28;20043;-53
2022/10/17 12:48:37;;;;;;;3.72;3.42;;;20.90;64.60;;;;;;5076851;28;20075;-50
2022/10/17 12:51:18;;;;;;;4.03;3.72;;;20.90;64.60;;;;;;5095645;28;20503;-49
2022/10/17 12:53:57;;;;;;;4.10;3.45;;;20.90;64.70;;;;;;5090058;28;20036;-51
2022/10/17 12:56:40;;;;;;;4.10;3.65;;;20.90;64.80;;;;;;5089942;28;20113;-52
2022/10/17 12:59:19;;;;;;;4.47;4.07;;;20.90;64.90;;;;;;5089476;28;20043;-49
2022/10/17 13:01:47;;;;;;;4.47;4.07;;;20.90;65.10;;;;;;5095100;28;20024;-51
2022/10/17 13:04:14;;;;;;;4.53;3.85;;;20.90;64.80;;;;;;5094806;28;20032;-55
2022/10/17 13:06:47;;;;;;;3.75;3.38;;;20.80;64.70;;;;;;5112416;28;20062;-49
2022/10/17 13:09:30;;;;;;;4.32;3.92;;;20.80;64.70;;;;;;5136384;27;20093;-50
2022/10/17 13:11:58;;;;;;;3.67;3.38;;;20.80;64.70;;;;;;5145730;27;20148;-52